createdAt,value
2019-05-23T00:02:24.930Z,98450.00
2019-05-23T00:05:03.232Z,98450.42
2019-05-23T00:07:34.145Z,98455.25
2019-05-23T00:10:07.821Z,98458.16
2019-05-23T00:12:45.433Z,98455.59
2019-05-23T00:15:36.259Z,98453.76
2019-05-23T00:18:06.597Z,98455.04
2019-05-23T00:20:37.431Z,98457.46
2019-05-23T00:23:08.766Z,98453.75
2019-05-23T00:25:40.459Z,98455.61
2019-05-23T00:28:10.836Z,98453.13
2019-05-23T00:31:02.199Z,98448.70
2019-05-23T00:33:33.125Z,98443.27
2019-05-23T00:36:03.507Z,98443.19
2019-05-23T00:38:34.665Z,98439.17
2019-05-23T00:41:07.717Z,98440.76
2019-05-23T00:43:38.290Z,98439.50
2019-05-23T00:46:09.503Z,98435.25
2019-05-23T00:48:41.358Z,98439.95
2019-05-23T00:51:11.842Z,98432.99
2019-05-23T00:53:42.293Z,98436.38
2019-05-23T00:56:13.530Z,98433.94
2019-05-23T00:58:44.597Z,98441.32
2019-05-23T01:01:16.319Z,98441.77
2019-05-23T01:03:47.439Z,98447.48
2019-05-23T01:06:18.174Z,98450.98
2019-05-23T01:08:50.196Z,98444.62
2019-05-23T01:11:21.617Z,98444.73
2019-05-23T01:13:52.647Z,98443.70
2019-05-23T01:16:23.446Z,98445.73
2019-05-23T01:18:54.002Z,98448.47
2019-05-23T01:21:26.796Z,98448.39
2019-05-23T01:23:59.094Z,98455.15
2019-05-23T01:26:30.323Z,98454.92
2019-05-23T01:29:01.961Z,98459.06
2019-05-23T01:31:33.814Z,98455.02
2019-05-23T01:34:05.636Z,98456.79
2019-05-23T01:36:37.064Z,98461.47
2019-05-23T01:39:10.352Z,98467.39
2019-05-23T01:41:41.430Z,98467.77
2019-05-23T01:44:11.773Z,98468.78
2019-05-23T01:46:42.890Z,98470.78
2019-05-23T01:49:13.525Z,98469.17
2019-05-23T01:51:44.096Z,98467.44
2019-05-23T01:54:14.992Z,98468.27
2019-05-23T01:56:45.533Z,98470.05
2019-05-23T01:59:16.697Z,98473.76
2019-05-23T02:01:46.929Z,98475.52
2019-05-23T02:04:17.770Z,98474.88
2019-05-23T02:06:48.762Z,98474.52
2019-05-23T02:09:19.332Z,98475.43
2019-05-23T02:11:49.817Z,98474.34
2019-05-23T02:14:20.302Z,98474.67
2019-05-23T02:16:51.767Z,98475.75
2019-05-23T02:19:22.810Z,98473.78
2019-05-23T02:21:53.054Z,98475.42
2019-05-23T02:24:23.663Z,98476.11
2019-05-23T02:26:54.525Z,98472.38
2019-05-23T02:29:26.067Z,98469.43
2019-05-23T02:31:56.276Z,98470.73
2019-05-23T02:34:28.756Z,98472.91
2019-05-23T02:37:00.768Z,98470.98
2019-05-23T02:39:42.186Z,98467.21
2019-05-23T02:42:30.082Z,98465.16
2019-05-23T02:45:00.943Z,98467.39
2019-05-23T02:47:38.930Z,98470.13
2019-05-23T02:50:15.407Z,98472.14
2019-05-23T02:52:49.463Z,98470.27
2019-05-23T02:55:37.347Z,98470.27
2019-05-23T02:58:20.936Z,98464.25
2019-05-23T03:00:59.788Z,98458.44
2019-05-23T03:03:32.713Z,98461.28
2019-05-23T03:06:05.703Z,98456.17
2019-05-23T03:08:37.130Z,98457.20
2019-05-23T03:11:36.608Z,98454.80
2019-05-23T03:14:08.711Z,98456.73
2019-05-23T03:16:43.087Z,98454.73
2019-05-23T03:19:29.272Z,98453.68
2019-05-23T03:22:21.423Z,98450.89
2019-05-23T03:24:51.695Z,98453.84
2019-05-23T03:27:24.549Z,98454.70
2019-05-23T03:29:55.505Z,98449.00
2019-05-23T03:32:45.160Z,98454.18
2019-05-23T03:35:34.138Z,98451.77
2019-05-23T03:38:05.751Z,98454.84
2019-05-23T03:40:37.702Z,98452.55
2019-05-23T03:43:09.281Z,98452.05
2019-05-23T03:45:52.869Z,98459.86
2019-05-23T03:48:24.146Z,98453.65
2019-05-23T03:50:55.685Z,98454.86
2019-05-23T03:53:28.786Z,98454.41
2019-05-23T03:55:59.444Z,98456.38
2019-05-23T03:58:30.099Z,98456.81
2019-05-23T04:01:01.941Z,98464.02
2019-05-23T04:03:32.966Z,98468.63
2019-05-23T04:06:04.134Z,98466.39
2019-05-23T04:08:34.574Z,98468.91
2019-05-23T04:11:05.043Z,98466.52
2019-05-23T04:13:35.390Z,98464.16
2019-05-23T04:16:05.710Z,98467.91
2019-05-23T04:18:36.161Z,98467.89
2019-05-23T04:21:06.553Z,98474.30
2019-05-23T04:23:37.111Z,98471.80
2019-05-23T04:26:07.756Z,98476.63
2019-05-23T04:28:38.082Z,98472.36
2019-05-23T04:31:12.723Z,98469.42
2019-05-23T04:33:40.900Z,98476.42
2019-05-23T04:36:11.182Z,98474.13
2019-05-23T04:38:41.662Z,98473.92
2019-05-23T04:41:11.929Z,98474.17
2019-05-23T04:43:42.316Z,98472.89
2019-05-23T04:46:13.367Z,98475.30
2019-05-23T04:48:44.189Z,98470.73
2019-05-23T04:51:15.159Z,98475.48
2019-05-23T04:53:45.925Z,98482.13
2019-05-23T04:56:16.951Z,98482.98
2019-05-23T04:58:47.759Z,98484.22
2019-05-23T05:01:17.686Z,98485.39
2019-05-23T05:03:47.111Z,98488.42
2019-05-23T05:06:17.444Z,98493.61
2019-05-23T05:08:47.234Z,98495.45
2019-05-23T05:11:17.862Z,98498.36
2019-05-23T05:13:48.350Z,98494.50
2019-05-23T05:16:18.785Z,98496.80
2019-05-23T05:18:49.335Z,98492.84
2019-05-23T05:21:19.826Z,98492.02
2019-05-23T05:23:50.257Z,98486.02
2019-05-23T05:26:23.255Z,98488.51
2019-05-23T05:28:53.700Z,98493.23
2019-05-23T05:31:23.898Z,98498.19
2019-05-23T05:33:54.098Z,98499.05
2019-05-23T05:36:24.729Z,98503.62
2019-05-23T05:38:54.989Z,98506.06
2019-05-23T05:41:25.802Z,98508.15
2019-05-23T05:43:56.719Z,98505.03
2019-05-23T05:46:27.463Z,98511.48
2019-05-23T05:48:58.987Z,98508.99
2019-05-23T05:51:30.076Z,98515.31
2019-05-23T05:54:01.324Z,98517.39
2019-05-23T05:56:31.538Z,98520.77
2019-05-23T05:59:02.205Z,98520.64
2019-05-23T06:01:34.493Z,98525.03
2019-05-23T06:04:05.806Z,98526.20
2019-05-23T06:06:54.668Z,98524.11
2019-05-23T06:09:32.555Z,98530.34
2019-05-23T06:12:04.408Z,98534.35
2019-05-23T06:14:34.730Z,98526.23
2019-05-23T06:17:06.857Z,98523.59
2019-05-23T06:19:37.121Z,98530.03
2019-05-23T06:22:09.148Z,98521.45
2019-05-23T06:24:48.470Z,98524.19
2019-05-23T06:27:13.526Z,98522.09
2019-05-23T06:29:43.735Z,98514.70
2019-05-23T06:32:18.773Z,98513.63
2019-05-23T06:34:49.935Z,98515.09
2019-05-23T06:37:21.151Z,98517.04
2019-05-23T06:39:53.108Z,98510.74
2019-05-23T06:42:23.758Z,98511.69
2019-05-23T06:44:55.147Z,98508.61
2019-05-23T06:47:25.354Z,98509.58
2019-05-23T06:49:55.603Z,98509.20
2019-05-23T06:52:25.821Z,98507.86
2019-05-23T06:54:59.578Z,98504.70
2019-05-23T06:57:28.240Z,98508.92
2019-05-23T06:59:58.623Z,98505.08
2019-05-23T07:02:31.800Z,98508.18
2019-05-23T07:05:01.282Z,98505.02
2019-05-23T07:07:31.239Z,98508.53
2019-05-23T07:10:02.593Z,98510.97
2019-05-23T07:12:33.203Z,98513.22
2019-05-23T07:15:04.987Z,98510.95
2019-05-23T07:17:35.268Z,98511.34
2019-05-23T07:20:10.069Z,98508.94
2019-05-23T07:22:41.181Z,98510.98
2019-05-23T07:25:10.815Z,98507.73
2019-05-23T07:27:40.376Z,98502.84
2019-05-23T07:30:18.021Z,98505.81
2019-05-23T07:32:48.377Z,98500.30
2019-05-23T07:35:19.166Z,98501.66
2019-05-23T07:37:48.984Z,98507.61
2019-05-23T07:40:18.694Z,98503.36
2019-05-23T07:42:49.067Z,98495.18
2019-05-23T07:45:23.806Z,98499.97
2019-05-23T07:47:54.292Z,98490.14
2019-05-23T07:50:24.644Z,98491.96
2019-05-23T07:52:56.791Z,98487.22
2019-05-23T07:55:41.323Z,98487.04
2019-05-23T07:58:13.752Z,98492.28
2019-05-23T08:00:45.936Z,98490.63
2019-05-23T08:03:17.064Z,98487.14
2019-05-23T08:05:47.730Z,98486.29
2019-05-23T08:08:18.311Z,98486.63
2019-05-23T08:10:48.631Z,98481.04
2019-05-23T08:13:19.028Z,98482.89
2019-05-23T08:15:49.963Z,98481.94
2019-05-23T08:18:20.657Z,98478.48
2019-05-23T08:20:50.998Z,98478.98
2019-05-23T08:23:21.360Z,98478.77
2019-05-23T08:25:51.855Z,98475.69
2019-05-23T08:28:22.053Z,98475.53
2019-05-23T08:30:52.445Z,98467.36
2019-05-23T08:33:22.932Z,98469.89
2019-05-23T08:35:53.234Z,98466.41
2019-05-23T08:38:24.090Z,98461.20
2019-05-23T08:40:54.811Z,98456.45
2019-05-23T08:43:25.110Z,98456.61
2019-05-23T08:45:56.305Z,98455.09
2019-05-23T08:48:28.256Z,98449.89
2019-05-23T08:50:58.811Z,98445.71
2019-05-23T08:53:29.585Z,98451.18
2019-05-23T08:56:00.413Z,98454.23
2019-05-23T08:58:30.668Z,98455.30
2019-05-23T09:01:01.180Z,98446.44
2019-05-23T09:03:32.045Z,98450.16
2019-05-23T09:06:02.424Z,98448.51
2019-05-23T09:08:32.653Z,98449.56
2019-05-23T09:11:02.851Z,98447.79
2019-05-23T09:13:33.241Z,98452.75
2019-05-23T09:16:04.260Z,98449.22
2019-05-23T09:18:34.941Z,98442.33
2019-05-23T09:21:06.588Z,98438.73
2019-05-23T09:23:36.974Z,98440.31
2019-05-23T09:26:07.268Z,98435.02
2019-05-23T09:28:37.760Z,98430.81
2019-05-23T09:31:08.301Z,98431.16
2019-05-23T09:33:38.874Z,98425.18
2019-05-23T09:36:09.829Z,98432.40
2019-05-23T09:38:40.027Z,98426.88
2019-05-23T09:41:10.471Z,98429.59
2019-05-23T09:43:40.847Z,98428.91
2019-05-23T09:46:11.606Z,98419.22
2019-05-23T09:48:42.189Z,98408.59
2019-05-23T09:51:12.677Z,98402.98
2019-05-23T09:53:47.191Z,98403.53
2019-05-23T09:56:15.181Z,98404.36
2019-05-23T09:58:45.479Z,98394.51
2019-05-23T10:01:17.729Z,98403.91
2019-05-23T10:03:48.050Z,98404.85
2019-05-23T10:06:18.917Z,98407.95
2019-05-23T10:08:49.114Z,98404.07
2019-05-23T10:11:19.337Z,98403.25
2019-05-23T10:13:49.609Z,98402.72
2019-05-23T10:16:20.123Z,98395.95
2019-05-23T10:18:51.080Z,98398.42
2019-05-23T10:21:21.401Z,98391.97
2019-05-23T10:23:51.633Z,98384.73
2019-05-23T10:26:21.934Z,98379.20
2019-05-23T10:28:52.209Z,98375.51
2019-05-23T10:31:21.675Z,98377.91
2019-05-23T10:33:51.919Z,98375.52
2019-05-23T10:36:22.191Z,98373.34
2019-05-23T10:38:51.701Z,98369.73
2019-05-23T10:41:21.142Z,98363.39
2019-05-23T10:43:50.587Z,98361.95
2019-05-23T10:46:21.607Z,98359.01
2019-05-23T10:48:51.108Z,98354.29
2019-05-23T10:51:21.449Z,98352.00
2019-05-23T10:53:51.690Z,98347.55
2019-05-23T10:56:22.947Z,98346.89
2019-05-23T10:58:53.230Z,98347.87
2019-05-23T11:01:23.350Z,98342.95
2019-05-23T11:03:53.906Z,98335.27
2019-05-23T11:06:24.283Z,98329.59
2019-05-23T11:08:55.103Z,98329.89
2019-05-23T11:11:26.045Z,98327.77
2019-05-23T11:13:57.002Z,98324.73
2019-05-23T11:16:28.153Z,98327.05
2019-05-23T11:18:58.651Z,98326.56
2019-05-23T11:21:29.452Z,98321.63
2019-05-23T11:24:00.239Z,98322.47
2019-05-23T11:26:30.651Z,98320.09
2019-05-23T11:29:01.154Z,98316.05
2019-05-23T11:31:32.043Z,98314.43
2019-05-23T11:34:02.340Z,98310.55
2019-05-23T11:36:36.236Z,98301.44
2019-05-23T11:39:08.602Z,98302.37
2019-05-23T11:41:39.428Z,98297.37
2019-05-23T11:44:09.748Z,98293.61
2019-05-23T11:46:40.923Z,98289.80
2019-05-23T11:49:11.389Z,98293.60
2019-05-23T11:51:42.190Z,98295.58
2019-05-23T11:54:12.608Z,98289.45
2019-05-23T11:56:43.220Z,98288.92
2019-05-23T11:59:13.803Z,98284.43
2019-05-23T12:02:01.935Z,98283.27
2019-05-23T12:04:33.477Z,98283.03
2019-05-23T12:07:05.520Z,98273.91
2019-05-23T12:09:35.821Z,98279.02
2019-05-23T12:12:05.768Z,98275.84
2019-05-23T12:14:35.291Z,98274.23
2019-05-23T12:17:04.864Z,98275.39
2019-05-23T12:19:34.851Z,98265.00
2019-05-23T12:22:04.520Z,98261.75
2019-05-23T12:24:35.495Z,98259.69
2019-05-23T12:27:06.290Z,98263.20
2019-05-23T12:29:36.728Z,98252.99
2019-05-23T12:32:07.677Z,98252.00
2019-05-23T12:34:37.169Z,98250.36
2019-05-23T12:37:22.054Z,98250.69
2019-05-23T12:39:37.865Z,98251.02
2019-05-23T12:42:07.235Z,98246.41
2019-05-23T12:44:36.695Z,98248.05
2019-05-23T12:47:08.509Z,98236.83
2019-05-23T12:49:39.657Z,98237.95
2019-05-23T12:52:09.575Z,98229.55
2019-05-23T12:54:40.258Z,98232.37
2019-05-23T12:57:09.978Z,98230.05
2019-05-23T12:59:40.693Z,98218.67
2019-05-23T13:02:12.526Z,98226.42
2019-05-23T13:04:43.557Z,98226.76
2019-05-23T13:07:14.230Z,98226.13
2019-05-23T13:09:44.623Z,98229.25
2019-05-23T13:12:16.631Z,98219.84
2019-05-23T13:14:47.238Z,98217.16
2019-05-23T13:17:17.527Z,98211.01
2019-05-23T13:19:48.666Z,98206.86
2019-05-23T13:22:19.002Z,98204.56
2019-05-23T13:24:53.062Z,98202.61
2019-05-23T13:27:21.211Z,98199.52
2019-05-23T13:29:51.496Z,98195.37
2019-05-23T13:32:22.242Z,98193.73
2019-05-23T13:34:52.513Z,98192.87
2019-05-23T13:37:22.953Z,98192.06
2019-05-23T13:39:53.338Z,98188.46
2019-05-23T13:42:23.574Z,98189.94
2019-05-23T13:44:53.861Z,98187.95
2019-05-23T13:47:24.076Z,98183.83
2019-05-23T13:49:54.386Z,98184.81
2019-05-23T13:52:24.589Z,98182.85
2019-05-23T13:54:54.858Z,98178.52
2019-05-23T13:57:24.646Z,98176.18
2019-05-23T13:59:54.044Z,98176.97
2019-05-23T14:02:23.460Z,98177.22
2019-05-23T14:04:53.896Z,98180.80
2019-05-23T14:07:25.637Z,98175.84
2019-05-23T14:09:56.222Z,98175.54
2019-05-23T14:12:27.484Z,98176.26
2019-05-23T14:14:57.842Z,98166.98
2019-05-23T14:17:29.964Z,98164.98
2019-05-23T14:20:00.294Z,98165.48
2019-05-23T14:22:32.402Z,98162.80
2019-05-23T14:25:03.045Z,98158.05
2019-05-23T14:27:34.335Z,98161.36
2019-05-23T14:30:12.439Z,98160.71
2019-05-23T14:32:43.648Z,98154.43
2019-05-23T14:35:14.778Z,98152.93
2019-05-23T14:37:46.103Z,98152.78
2019-05-23T14:40:15.586Z,98154.07
2019-05-23T14:42:47.422Z,98153.51
2019-05-23T14:45:22.277Z,98152.27
2019-05-23T14:47:59.911Z,98152.12
2019-05-23T14:50:34.857Z,98141.39
2019-05-23T14:53:07.181Z,98139.50
2019-05-23T14:55:37.732Z,98134.77
2019-05-23T14:58:08.547Z,98137.42
2019-05-23T15:00:40.278Z,98137.28
2019-05-23T15:03:10.933Z,98129.81
2019-05-23T15:05:41.227Z,98118.14
2019-05-23T15:08:11.475Z,98116.80
2019-05-23T15:10:41.885Z,98124.37
2019-05-23T15:13:12.628Z,98116.93
2019-05-23T15:15:43.035Z,98115.19
2019-05-23T15:18:13.472Z,98106.93
2019-05-23T15:20:43.710Z,98105.34
2019-05-23T15:23:14.050Z,98098.92
2019-05-23T15:25:44.276Z,98096.71
2019-05-23T15:28:14.568Z,98090.39
2019-05-23T15:30:44.803Z,98091.52
2019-05-23T15:33:15.053Z,98087.41
2019-05-23T15:35:45.870Z,98084.70
2019-05-23T15:38:16.459Z,98081.62
2019-05-23T15:40:46.926Z,98082.39
2019-05-23T15:43:17.262Z,98078.72
2019-05-23T15:45:48.390Z,98069.82
2019-05-23T15:48:18.898Z,98068.58
2019-05-23T15:50:51.006Z,98065.94
2019-05-23T15:53:32.383Z,98070.67
2019-05-23T15:56:26.923Z,98065.09
2019-05-23T15:58:46.543Z,98063.67
2019-05-23T16:01:27.640Z,98063.05
2019-05-23T16:03:59.645Z,98056.63
2019-05-23T16:06:31.515Z,98058.31
2019-05-23T16:09:01.943Z,98050.03
2019-05-23T16:11:32.216Z,98044.31
2019-05-23T16:14:02.613Z,98041.66
2019-05-23T16:16:33.556Z,98042.93
2019-05-23T16:19:03.958Z,98043.25
2019-05-23T16:21:34.800Z,98040.30
2019-05-23T16:24:06.601Z,98046.09
2019-05-23T16:26:37.542Z,98048.94
2019-05-23T16:29:09.590Z,98044.83
2019-05-23T16:31:39.993Z,98048.80
2019-05-23T16:34:10.209Z,98045.49
2019-05-23T16:36:40.430Z,98045.50
2019-05-23T16:39:10.722Z,98047.00
2019-05-23T16:41:40.937Z,98053.73
2019-05-23T16:44:11.276Z,98059.28
2019-05-23T16:46:41.534Z,98056.73
2019-05-23T16:49:11.813Z,98054.96
2019-05-23T16:51:42.043Z,98055.60
2019-05-23T16:54:13.925Z,98058.14
2019-05-23T16:56:45.965Z,98057.76
2019-05-23T16:59:20.861Z,98056.80
2019-05-23T17:01:57.852Z,98055.87
2019-05-23T17:04:26.648Z,98053.10
2019-05-23T17:07:01.325Z,98049.85
2019-05-23T17:09:33.355Z,98053.38
2019-05-23T17:12:21.767Z,98054.56
2019-05-23T17:14:57.042Z,98058.42
2019-05-23T17:17:49.349Z,98056.36
2019-05-23T17:20:19.070Z,98052.61
2019-05-23T17:22:42.676Z,98049.64
2019-05-23T17:25:34.439Z,98049.30
2019-05-23T17:28:12.725Z,98050.30
2019-05-23T17:30:47.203Z,98050.97
2019-05-23T17:33:18.286Z,98052.81
2019-05-23T17:35:48.884Z,98056.13
2019-05-23T17:38:19.948Z,98055.19
2019-05-23T17:40:50.300Z,98050.41
2019-05-23T17:43:20.594Z,98044.45
2019-05-23T17:45:51.048Z,98047.08
2019-05-23T17:48:21.548Z,98040.65
2019-05-23T17:50:51.766Z,98044.61
2019-05-23T17:53:22.327Z,98043.25
2019-05-23T17:55:53.366Z,98042.92
2019-05-23T17:58:24.278Z,98044.27
2019-05-23T18:00:56.010Z,98042.77
2019-05-23T18:03:26.729Z,98040.02
2019-05-23T18:05:58.003Z,98039.89
2019-05-23T18:08:29.557Z,98042.70
2019-05-23T18:11:00.036Z,98045.03
2019-05-23T18:13:30.434Z,98038.95
2019-05-23T18:16:00.662Z,98038.62
2019-05-23T18:18:31.046Z,98041.77
2019-05-23T18:21:01.703Z,98043.77
2019-05-23T18:23:51.412Z,98046.05
2019-05-23T18:26:21.678Z,98048.54
2019-05-23T18:28:53.418Z,98045.05
2019-05-23T18:31:28.689Z,98048.20
2019-05-23T18:33:59.320Z,98050.81
2019-05-23T18:36:30.355Z,98046.21
2019-05-23T18:39:00.714Z,98047.52
2019-05-23T18:41:31.781Z,98046.70
2019-05-23T18:44:02.082Z,98044.88
2019-05-23T18:46:37.199Z,98045.83
2019-05-23T18:49:07.964Z,98046.66
2019-05-23T18:51:39.310Z,98057.86
2019-05-23T18:54:10.082Z,98059.31
2019-05-23T18:56:40.349Z,98062.38
2019-05-23T18:59:11.635Z,98066.77
2019-05-23T19:01:41.837Z,98069.35
2019-05-23T19:04:12.738Z,98071.10
2019-05-23T19:06:43.315Z,98067.74
2019-05-23T19:09:15.211Z,98069.48
2019-05-23T19:11:46.057Z,98073.69
2019-05-23T19:14:16.278Z,98078.51
2019-05-23T19:16:47.311Z,98083.20
2019-05-23T19:19:17.563Z,98082.82
2019-05-23T19:21:48.018Z,98087.67
2019-05-23T19:24:18.683Z,98083.97
2019-05-23T19:26:49.426Z,98090.17
2019-05-23T19:29:20.634Z,98086.63
2019-05-23T19:31:50.913Z,98092.30
2019-05-23T19:34:21.120Z,98090.42
2019-05-23T19:36:51.531Z,98090.52
2019-05-23T19:39:23.558Z,98087.69
2019-05-23T19:41:54.220Z,98086.91
2019-05-23T19:44:24.466Z,98087.02
2019-05-23T19:46:54.661Z,98090.38
2019-05-23T19:49:27.186Z,98089.52
2019-05-23T19:51:57.287Z,98088.78
2019-05-23T19:54:28.754Z,98086.11
2019-05-23T19:56:58.956Z,98085.23
2019-05-23T19:59:29.380Z,98081.55
2019-05-23T20:02:01.778Z,98079.85
2019-05-23T20:04:33.889Z,98082.79
2019-05-23T20:07:05.087Z,98091.41
2019-05-23T20:09:35.560Z,98088.27
2019-05-23T20:12:06.025Z,98089.86
2019-05-23T20:14:36.923Z,98088.80
2019-05-23T20:17:07.498Z,98091.08
2019-05-23T20:19:37.840Z,98090.86
2019-05-23T20:22:08.124Z,98087.47
2019-05-23T20:24:38.353Z,98089.88
2019-05-23T20:27:08.893Z,98090.77
2019-05-23T20:29:39.355Z,98089.08
2019-05-23T20:32:10.053Z,98092.16
2019-05-23T20:34:40.607Z,98085.46
2019-05-23T20:37:11.077Z,98083.47
2019-05-23T20:39:41.554Z,98081.98
2019-05-23T20:42:12.265Z,98076.36
2019-05-23T20:44:42.972Z,98078.94
2019-05-23T20:47:13.608Z,98071.83
2019-05-23T20:49:43.971Z,98072.75
2019-05-23T20:52:14.245Z,98077.12
2019-05-23T20:54:44.569Z,98073.45
2019-05-23T20:57:15.169Z,98076.52
2019-05-23T20:59:47.318Z,98079.92
2019-05-23T21:02:17.869Z,98078.23
2019-05-23T21:04:48.085Z,98072.27
2019-05-23T21:07:18.308Z,98067.47
2019-05-23T21:09:48.808Z,98080.19
2019-05-23T21:12:29.356Z,98078.31
2019-05-23T21:14:51.522Z,98079.41
2019-05-23T21:17:21.800Z,98076.57
2019-05-23T21:19:52.015Z,98074.66
2019-05-23T21:22:22.219Z,98079.05
2019-05-23T21:24:52.525Z,98077.03
2019-05-23T21:27:23.223Z,98081.23
2019-05-23T21:29:53.808Z,98088.25
2019-05-23T21:32:24.018Z,98086.84
2019-05-23T21:34:54.234Z,98090.58
2019-05-23T21:37:24.501Z,98093.97
2019-05-23T21:39:54.886Z,98097.72
2019-05-23T21:42:25.114Z,98097.64
2019-05-23T21:44:55.333Z,98105.81
2019-05-23T21:47:25.833Z,98104.27
2019-05-23T21:49:57.024Z,98103.59
2019-05-23T21:52:28.397Z,98099.62
2019-05-23T21:54:58.614Z,98100.66
2019-05-23T21:57:28.852Z,98103.52
2019-05-23T21:59:59.070Z,98101.36
2019-05-23T22:02:33.748Z,98102.11
2019-05-23T22:05:07.476Z,98102.39
2019-05-23T22:07:37.770Z,98100.90
2019-05-23T22:10:08.811Z,98096.92
2019-05-23T22:12:39.105Z,98095.56
2019-05-23T22:15:09.773Z,98095.52
2019-05-23T22:17:40.459Z,98092.96
2019-05-23T22:20:10.833Z,98094.03
2019-05-23T22:22:41.052Z,98089.59
2019-05-23T22:25:16.011Z,98085.28
2019-05-23T22:27:46.301Z,98079.78
2019-05-23T22:30:17.024Z,98079.39
2019-05-23T22:32:48.053Z,98076.88
2019-05-23T22:35:19.992Z,98080.10
2019-05-23T22:37:50.229Z,98077.23
2019-05-23T22:40:20.499Z,98077.67
2019-05-23T22:42:51.168Z,98083.18
2019-05-23T22:45:23.222Z,98080.44
2019-05-23T22:47:54.982Z,98079.90
2019-05-23T22:50:25.262Z,98080.98
2019-05-23T22:52:55.486Z,98075.83
2019-05-23T22:55:25.864Z,98071.95
2019-05-23T22:57:56.071Z,98072.85
2019-05-23T23:00:27.915Z,98075.70
2019-05-23T23:02:58.149Z,98072.30
2019-05-23T23:05:28.933Z,98072.85
2019-05-23T23:07:59.161Z,98078.48
2019-05-23T23:10:29.460Z,98078.58
2019-05-23T23:12:59.740Z,98078.66
2019-05-23T23:15:31.755Z,98074.50
2019-05-23T23:18:01.963Z,98071.11
2019-05-23T23:20:32.612Z,98076.80
2019-05-23T23:23:02.934Z,98072.64
2019-05-23T23:25:34.191Z,98071.28
2019-05-23T23:28:04.611Z,98074.25
2019-05-23T23:30:42.474Z,98077.43
2019-05-23T23:33:12.711Z,98077.20
2019-05-23T23:35:43.040Z,98075.43
2019-05-23T23:38:13.254Z,98076.50
2019-05-23T23:40:43.550Z,98076.14
2019-05-23T23:43:14.023Z,98075.05
2019-05-23T23:46:02.376Z,98073.78
2019-05-23T23:48:50.374Z,98073.11
2019-05-23T23:51:38.720Z,98068.16
2019-05-23T23:54:26.517Z,98072.25
2019-05-23T23:57:15.303Z,98071.94
2019-05-23T23:59:45.500Z,98066.83
